Aérodrome :
LOGIN :

S'inscrire | Disclaimer

   EN    FR    IT 

 










Légende :    VFR   VFR Marginal   IFR   IFR Intensif   IFR Très Intensif
Visi : 
Plafond : 
>= 8 km
>= 3000ft
5 à 8 km
1000 à 3000 ft
1500m à 5 km
500 à 1000 ft
800 à 1500m
200 à 500 ft
< 800m
< 200 ft
Symboles :   Orages  Brouillard  Fortes neiges  Fortes précipitations  Vent > 20 kt
SIGMETs :   Divers  Orages  Givrage  Turbulence  Onde Orograph.  Cendres Volcan.






- Altitude de l'aérodrome : 436 ft
- Code IATA : BTS


LZIB - Bratislava

DERNIER METAR :
  • 152000Z 03007KT CAVOK 02/01 Q1014 R88/CLRD//

METARs EXPIRÉS :
  • 151930Z 03006KT CAVOK 02/01 Q1014 R88/CLRD//
  • 151900Z 04007KT CAVOK 02/01 Q1014 R88/CLRD// NOSIG
  • 151830Z 04007KT CAVOK 03/01 Q1014 R88/CLRD// NOSIG
  • 151800Z 03008KT CAVOK 03/01 Q1014 R88/CLRD// NOSIG
  • 151730Z 03008KT CAVOK 03/02 Q1013 R88/CLRD// NOSIG

TAF TAF LZIB
Valide du 15 à 18h jusqu'au 16 à 18h UTC


151700Z 1518/1618 04006KT CAVOK
BECMG 1519/1521 4000 BR SCT005
BECMG 1521/1523 VRB02KT 1400 BKN004
TEMPO 1600/1608 0300 FG OVC001
BECMG 1609/1611 13010KT 9999 SCT030



MET'MAP, la Météo Aéronautique d'un coup d'oeil ! - Copyright ORBIFLY Décembre 2007 - Disclaimer

ORBIFLY MET'MAP TEAM :

Programmation & Développement : Alexandra Zaïnal
Sur une idée originale de : Baudouin d'Aumeries
Assistance à la programmation : Marc-Olivier Méhu
Soutien technique & logistique : Manuel Goepfert

Contact : metmap@orbifly.com




SOURCES & CREDITS :

   NOAA